PWSweather.com
Personal Weather Stations
Station Observations
KNHRINDG3
Converse Meadow Pond, Rindge, NH 03461

Converse Meadow PondRindge, NH 03461

Lat: 42.74, Lon: -71.98

Elevation: 1060

Station Type: Davis Vantage Pro 2

http://nhwoodworker.com/weather/index.php

Latest ConditionsUpdated 6:20:04 PM EDT Sunday, Aug 30, 2015
Currently Today's Max Today's Min Today's Average
Temperature 78.8°F26.0°C 79.5°F26.4°C 53.4°F11.9°C 65.8°F18.8°C
Dew Point 64.7°F18.2°C 66.6°F19.2°C 52.8°F11.6°C 60.3°F15.7°C
Winds Calm Calm 4.6 mph S7.4 kmh S - 0.3 mph 0.5 kmh
Wind Gusts -- 5.8 mph9.3 kmh - -
Humidity 62% 100% 60% 84%
Pressure 29.99 in1015.6 mb 30.07 in1018.3 mb 29.98 in1015.2 mb -
Hour Temp Dew Point Humidity Winds Wind Gusts Pressure Precip Precip Rate Daily Precip Total
06:20 PM 78.8°F26.0°C 64.7°F18.2°C 62% Calm Calm -- 29.99 in1015.6 mb - 0.00 in0.0 mm 0.00 in0.0 mm
06:10 PM 78.8°F26.0°C 64.7°F18.2°C 62% Calm Calm -- 29.99 in1015.6 mb - 0.00 in0.0 mm 0.00 in0.0 mm
06:00 PM 78.8°F26.0°C 64.7°F18.2°C 62% Calm Calm -- 29.99 in1015.6 mb - 0.00 in0.0 mm 0.00 in0.0 mm
05:50 PM 78.8°F26.0°C 64.7°F18.2°C 62% Calm Calm -- 29.99 in1015.6 mb - 0.00 in0.0 mm 0.00 in0.0 mm
05:40 PM 78.8°F26.0°C 64.7°F18.2°C 62% Calm Calm -- 29.99 in1015.6 mb - 0.00 in0.0 mm 0.00 in0.0 mm
05:30 PM 78.8°F26.0°C 64.7°F18.2°C 62% Calm Calm -- 29.99 in1015.6 mb - 0.00 in0.0 mm 0.00 in0.0 mm
05:20 PM 78.8°F26.0°C 64.7°F18.2°C 62% Calm Calm -- 29.99 in1015.6 mb - 0.00 in0.0 mm 0.00 in0.0 mm
05:10 PM 78.8°F26.0°C 64.7°F18.2°C 62% Calm Calm -- 29.98 in1015.2 mb - 0.00 in0.0 mm 0.00 in0.0 mm
05:00 PM 78.8°F26.0°C 64.7°F18.2°C 62% Calm Calm -- 29.99 in1015.6 mb - 0.00 in0.0 mm 0.00 in0.0 mm
04:50 PM 78.8°F26.0°C 64.7°F18.2°C 62% Calm Calm -- 29.99 in1015.6 mb - 0.00 in0.0 mm 0.00 in0.0 mm
04:40 PM 78.8°F26.0°C 64.7°F18.2°C 62% Calm Calm -- 29.99 in1015.6 mb - 0.00 in0.0 mm 0.00 in0.0 mm
04:30 PM 78.8°F26.0°C 64.7°F18.2°C 62% Calm Calm -- 29.99 in1015.6 mb - 0.00 in0.0 mm 0.00 in0.0 mm
04:20 PM 78.8°F26.0°C 64.7°F18.2°C 62% Calm Calm -- 30.00 in1015.9 mb - 0.00 in0.0 mm 0.00 in0.0 mm
04:10 PM 78.8°F26.0°C 64.7°F18.2°C 62% Calm Calm -- 30.00 in1015.9 mb - 0.00 in0.0 mm 0.00 in0.0 mm
04:00 PM 78.8°F26.0°C 64.7°F18.2°C 62% Calm Calm -- 30.00 in1015.9 mb - 0.00 in0.0 mm 0.00 in0.0 mm
03:50 PM 78.8°F26.0°C 64.7°F18.2°C 62% Calm Calm -- 30.00 in1015.9 mb - 0.00 in0.0 mm 0.00 in0.0 mm
03:40 PM 78.8°F26.0°C 64.7°F18.2°C 62% Calm Calm -- 30.00 in1015.9 mb - 0.00 in0.0 mm 0.00 in0.0 mm
03:30 PM 78.8°F26.0°C 64.7°F18.2°C 62% Calm Calm -- 30.00 in1015.9 mb - 0.00 in0.0 mm 0.00 in0.0 mm
03:20 PM 78.8°F26.0°C 64.7°F18.2°C 62% Calm Calm -- 30.00 in1015.9 mb - 0.00 in0.0 mm 0.00 in0.0 mm
03:10 PM 78.8°F26.0°C 64.7°F18.2°C 62% Calm Calm -- 30.01 in1016.3 mb - 0.00 in0.0 mm 0.00 in0.0 mm
03:00 PM 78.8°F26.0°C 64.7°F18.2°C 62% Calm Calm -- 30.01 in1016.3 mb - 0.00 in0.0 mm 0.00 in0.0 mm
02:50 PM 78.8°F26.0°C 64.7°F18.2°C 62% Calm Calm -- 30.02 in1016.6 mb - 0.00 in0.0 mm 0.00 in0.0 mm
02:40 PM 78.8°F26.0°C 64.7°F18.2°C 62% 4.6 mph S7.4 kmh S 4.6 mph7.4 kmh 30.02 in1016.6 mb - 0.00 in0.0 mm 0.00 in0.0 mm
02:30 PM 79.1°F26.2°C 64.5°F18.1°C 61% 2.3 mph W3.7 kmh W 3.5 mph5.6 kmh 30.02 in1016.6 mb - 0.00 in0.0 mm 0.00 in0.0 mm
02:20 PM 79.5°F26.4°C 64.4°F18.0°C 60% 3.5 mph NE5.6 kmh NE 3.5 mph5.6 kmh 30.02 in1016.6 mb - 0.00 in0.0 mm 0.00 in0.0 mm
02:10 PM 78.9°F26.1°C 64.3°F17.9°C 61% 3.5 mph ENE5.6 kmh ENE 3.5 mph5.6 kmh 30.03 in1016.9 mb - 0.00 in0.0 mm 0.00 in0.0 mm
02:00 PM 78.5°F25.8°C 64.8°F18.2°C 63% 3.5 mph SE5.6 kmh SE 5.8 mph9.3 kmh 30.03 in1016.9 mb - 0.00 in0.0 mm 0.00 in0.0 mm
01:50 PM 78.1°F25.6°C 64.5°F18.1°C 63% 1.2 mph NNW1.9 kmh NNW 2.3 mph3.7 kmh 30.03 in1016.9 mb - 0.00 in0.0 mm 0.00 in0.0 mm
01:40 PM 78.6°F25.9°C 63.6°F17.6°C 60% 1.2 mph ENE1.9 kmh ENE 2.3 mph3.7 kmh 30.03 in1016.9 mb - 0.00 in0.0 mm 0.00 in0.0 mm
01:30 PM 78.5°F25.8°C 64.4°F18.0°C 62% 1.2 mph NE1.9 kmh NE 2.3 mph3.7 kmh 30.03 in1016.9 mb - 0.00 in0.0 mm 0.00 in0.0 mm
01:20 PM 78.0°F25.6°C 63.0°F17.2°C 60% 1.2 mph NE1.9 kmh NE 3.5 mph5.6 kmh 30.04 in1017.3 mb - 0.00 in0.0 mm 0.00 in0.0 mm
01:10 PM 78.3°F25.7°C 64.7°F18.2°C 63% 3.5 mph S5.6 kmh S 3.5 mph5.6 kmh 30.04 in1017.3 mb - 0.00 in0.0 mm 0.00 in0.0 mm
01:00 PM 78.5°F25.8°C 63.5°F17.5°C 60% Calm Calm 1.2 mph1.9 kmh 30.04 in1017.3 mb - 0.00 in0.0 mm 0.00 in0.0 mm
12:50 PM 78.5°F25.8°C 63.9°F17.7°C 61% 2.3 mph WNW3.7 kmh WNW 3.5 mph5.6 kmh 30.04 in1017.3 mb - 0.00 in0.0 mm 0.00 in0.0 mm
12:40 PM 78.5°F25.8°C 63.5°F17.5°C 60% 1.2 mph S1.9 kmh S 3.5 mph5.6 kmh 30.05 in1017.6 mb - 0.00 in0.0 mm 0.00 in0.0 mm
12:30 PM 71.0°F21.7°C 66.6°F19.2°C 86% Calm Calm 4.6 mph7.4 kmh 30.05 in1017.6 mb - 0.00 in0.0 mm 0.00 in0.0 mm
12:20 PM 68.5°F20.3°C 64.1°F17.8°C 86% Calm Calm -- 30.06 in1017.9 mb - 0.00 in0.0 mm 0.00 in0.0 mm
12:10 PM 68.5°F20.3°C 64.1°F17.8°C 86% Calm Calm -- 30.06 in1017.9 mb - 0.00 in0.0 mm 0.00 in0.0 mm
12:00 PM 68.5°F20.3°C 64.1°F17.8°C 86% Calm Calm -- 30.06 in1017.9 mb - 0.00 in0.0 mm 0.00 in0.0 mm
11:50 AM 68.5°F20.3°C 64.1°F17.8°C 86% Calm Calm -- 30.07 in1018.3 mb - 0.00 in0.0 mm 0.00 in0.0 mm
11:40 AM 68.5°F20.3°C 64.1°F17.8°C 86% Calm Calm -- 30.07 in1018.3 mb - 0.00 in0.0 mm 0.00 in0.0 mm
11:30 AM 68.5°F20.3°C 64.1°F17.8°C 86% Calm Calm -- 30.07 in1018.3 mb - 0.00 in0.0 mm 0.00 in0.0 mm
11:20 AM 68.5°F20.3°C 64.1°F17.8°C 86% Calm Calm -- 30.07 in1018.3 mb - 0.00 in0.0 mm 0.00 in0.0 mm
11:10 AM 68.5°F20.3°C 64.1°F17.8°C 86% Calm Calm -- 30.07 in1018.3 mb - 0.00 in0.0 mm 0.00 in0.0 mm
11:00 AM 68.5°F20.3°C 64.1°F17.8°C 86% Calm Calm -- 30.06 in1017.9 mb - 0.00 in0.0 mm 0.00 in0.0 mm
10:50 AM 68.5°F20.3°C 64.1°F17.8°C 86% Calm Calm -- 30.07 in1018.3 mb - 0.00 in0.0 mm 0.00 in0.0 mm
10:40 AM 68.5°F20.3°C 64.1°F17.8°C 86% Calm Calm -- 30.07 in1018.3 mb - 0.00 in0.0 mm 0.00 in0.0 mm
10:30 AM 68.5°F20.3°C 64.1°F17.8°C 86% Calm Calm -- 30.07 in1018.3 mb - 0.00 in0.0 mm 0.00 in0.0 mm
10:20 AM 68.5°F20.3°C 64.1°F17.8°C 86% Calm Calm -- 30.07 in1018.3 mb - 0.00 in0.0 mm 0.00 in0.0 mm
10:10 AM 68.5°F20.3°C 64.1°F17.8°C 86% Calm Calm -- 30.07 in1018.3 mb - 0.00 in0.0 mm 0.00 in0.0 mm
10:00 AM 68.5°F20.3°C 64.1°F17.8°C 86% Calm Calm -- 30.07 in1018.3 mb - 0.00 in0.0 mm 0.00 in0.0 mm
09:50 AM 68.5°F20.3°C 64.1°F17.8°C 86% Calm Calm -- 30.06 in1017.9 mb - 0.00 in0.0 mm 0.00 in0.0 mm
09:40 AM 67.9°F19.9°C 64.2°F17.9°C 88% Calm Calm 1.2 mph1.9 kmh 30.06 in1017.9 mb - 0.00 in0.0 mm 0.00 in0.0 mm
09:30 AM 67.0°F19.4°C 63.7°F17.6°C 89% 1.2 mph S1.9 kmh S 1.2 mph1.9 kmh 30.06 in1017.9 mb - 0.00 in0.0 mm 0.00 in0.0 mm
09:20 AM 65.9°F18.8°C 64.1°F17.8°C 94% 1.2 mph SSW1.9 kmh SSW 3.5 mph5.6 kmh 30.07 in1018.3 mb - 0.00 in0.0 mm 0.00 in0.0 mm
09:10 AM 64.8°F18.2°C 63.9°F17.7°C 97% Calm Calm -- 30.06 in1017.9 mb - 0.00 in0.0 mm 0.00 in0.0 mm
09:00 AM 63.8°F17.7°C 63.8°F17.7°C 100% Calm Calm -- 30.06 in1017.9 mb - 0.00 in0.0 mm 0.00 in0.0 mm
08:50 AM 62.9°F17.2°C 62.9°F17.2°C 100% Calm Calm -- 30.06 in1017.9 mb - 0.00 in0.0 mm 0.00 in0.0 mm
08:40 AM 62.0°F16.7°C 62.0°F16.7°C 100% Calm Calm -- 30.06 in1017.9 mb - 0.00 in0.0 mm 0.00 in0.0 mm
08:30 AM 60.3°F15.7°C 60.3°F15.7°C 100% Calm Calm -- 30.06 in1017.9 mb - 0.00 in0.0 mm 0.00 in0.0 mm
08:20 AM 58.3°F14.6°C 58.0°F14.4°C 99% Calm Calm 1.2 mph1.9 kmh 30.07 in1018.3 mb - 0.00 in0.0 mm 0.00 in0.0 mm
08:10 AM 57.5°F14.2°C 57.2°F14.0°C 99% Calm Calm -- 30.07 in1018.3 mb - 0.00 in0.0 mm 0.00 in0.0 mm
08:00 AM 56.9°F13.8°C 56.6°F13.7°C 99% Calm Calm -- 30.07 in1018.3 mb - 0.00 in0.0 mm 0.00 in0.0 mm
07:50 AM 56.2°F13.4°C 55.9°F13.3°C 99% Calm Calm -- 30.07 in1018.3 mb - 0.00 in0.0 mm 0.00 in0.0 mm
07:40 AM 55.9°F13.3°C 55.7°F13.2°C 99% Calm Calm -- 30.07 in1018.3 mb - 0.00 in0.0 mm 0.00 in0.0 mm
07:30 AM 55.6°F13.1°C 55.3°F12.9°C 99% Calm Calm -- 30.07 in1018.3 mb - 0.00 in0.0 mm 0.00 in0.0 mm
07:20 AM 55.0°F12.8°C 54.7°F12.6°C 99% Calm Calm -- 30.07 in1018.3 mb - 0.00 in0.0 mm 0.00 in0.0 mm
07:10 AM 54.5°F12.5°C 54.2°F12.3°C 99% Calm Calm -- 30.07 in1018.3 mb - 0.00 in0.0 mm 0.00 in0.0 mm
07:00 AM 53.9°F12.2°C 53.6°F12.0°C 99% Calm Calm -- 30.07 in1018.3 mb - 0.00 in0.0 mm 0.00 in0.0 mm
06:50 AM 53.4°F11.9°C 52.8°F11.6°C 98% Calm Calm -- 30.06 in1017.9 mb - 0.00 in0.0 mm 0.00 in0.0 mm
06:40 AM 53.4°F11.9°C 52.8°F11.6°C 98% Calm Calm -- 30.06 in1017.9 mb - 0.00 in0.0 mm 0.00 in0.0 mm
06:30 AM 53.4°F11.9°C 52.8°F11.6°C 98% Calm Calm -- 30.06 in1017.9 mb - 0.00 in0.0 mm 0.00 in0.0 mm
06:20 AM 53.5°F11.9°C 53.0°F11.7°C 98% Calm Calm -- 30.05 in1017.6 mb - 0.00 in0.0 mm 0.00 in0.0 mm
06:10 AM 53.7°F12.1°C 53.1°F11.7°C 98% Calm Calm -- 30.05 in1017.6 mb - 0.00 in0.0 mm 0.00 in0.0 mm
06:00 AM 53.8°F12.1°C 53.2°F11.8°C 98% Calm Calm -- 30.04 in1017.3 mb - 0.00 in0.0 mm 0.00 in0.0 mm
05:50 AM 53.9°F12.2°C 53.3°F11.8°C 98% Calm Calm -- 30.05 in1017.6 mb - 0.00 in0.0 mm 0.00 in0.0 mm
05:40 AM 54.1°F12.3°C 53.5°F11.9°C 98% Calm Calm -- 30.05 in1017.6 mb - 0.00 in0.0 mm 0.00 in0.0 mm
05:30 AM 54.2°F12.3°C 53.6°F12.0°C 98% Calm Calm -- 30.04 in1017.3 mb - 0.00 in0.0 mm 0.00 in0.0 mm
05:20 AM 54.3°F12.4°C 53.7°F12.1°C 98% Calm Calm -- 30.04 in1017.3 mb - 0.00 in0.0 mm 0.00 in0.0 mm
05:10 AM 54.4°F12.4°C 53.8°F12.1°C 98% Calm Calm -- 30.04 in1017.3 mb - 0.00 in0.0 mm 0.00 in0.0 mm
05:00 AM 54.4°F12.4°C 53.8°F12.1°C 98% Calm Calm -- 30.04 in1017.3 mb - 0.00 in0.0 mm 0.00 in0.0 mm
04:50 AM 54.6°F12.6°C 54.0°F12.2°C 98% Calm Calm -- 30.04 in1017.3 mb - 0.00 in0.0 mm 0.00 in0.0 mm
04:40 AM 54.8°F12.7°C 54.2°F12.3°C 98% Calm Calm -- 30.04 in1017.3 mb - 0.00 in0.0 mm 0.00 in0.0 mm
04:30 AM 54.9°F12.7°C 54.3°F12.4°C 98% Calm Calm -- 30.04 in1017.3 mb - 0.00 in0.0 mm 0.00 in0.0 mm
04:20 AM 55.1°F12.8°C 54.3°F12.4°C 97% Calm Calm -- 30.04 in1017.3 mb - 0.00 in0.0 mm 0.00 in0.0 mm
04:10 AM 55.2°F12.9°C 54.7°F12.6°C 98% Calm Calm -- 30.04 in1017.3 mb - 0.00 in0.0 mm 0.00 in0.0 mm
04:00 AM 55.4°F13.0°C 54.6°F12.6°C 97% Calm Calm -- 30.04 in1017.3 mb - 0.00 in0.0 mm 0.00 in0.0 mm
03:50 AM 55.5°F13.1°C 54.7°F12.6°C 97% Calm Calm -- 30.04 in1017.3 mb - 0.00 in0.0 mm 0.00 in0.0 mm
03:40 AM 55.7°F13.2°C 54.9°F12.7°C 97% Calm Calm -- 30.04 in1017.3 mb - 0.00 in0.0 mm 0.00 in0.0 mm
03:30 AM 56.0°F13.3°C 55.2°F12.9°C 97% Calm Calm -- 30.04 in1017.3 mb - 0.00 in0.0 mm 0.00 in0.0 mm
03:20 AM 56.3°F13.5°C 55.5°F13.1°C 97% Calm Calm -- 30.04 in1017.3 mb - 0.00 in0.0 mm 0.00 in0.0 mm
03:10 AM 56.5°F13.6°C 55.7°F13.2°C 97% Calm Calm -- 30.04 in1017.3 mb - 0.00 in0.0 mm 0.00 in0.0 mm
03:00 AM 56.8°F13.8°C 56.0°F13.3°C 97% Calm Calm -- 30.04 in1017.3 mb - 0.00 in0.0 mm 0.00 in0.0 mm
02:50 AM 57.0°F13.9°C 56.2°F13.4°C 97% Calm Calm -- 30.04 in1017.3 mb - 0.00 in0.0 mm 0.00 in0.0 mm
02:40 AM 57.2°F14.0°C 56.4°F13.6°C 97% Calm Calm -- 30.04 in1017.3 mb - 0.00 in0.0 mm 0.00 in0.0 mm
02:30 AM 57.5°F14.2°C 56.7°F13.7°C 97% Calm Calm -- 30.04 in1017.3 mb - 0.00 in0.0 mm 0.00 in0.0 mm
02:20 AM 57.8°F14.3°C 56.9°F13.8°C 97% Calm Calm -- 30.04 in1017.3 mb - 0.00 in0.0 mm 0.00 in0.0 mm
02:10 AM 57.9°F14.4°C 57.1°F13.9°C 97% Calm Calm -- 30.04 in1017.3 mb - 0.00 in0.0 mm 0.00 in0.0 mm
02:00 AM 58.1°F14.5°C 57.3°F14.1°C 97% Calm Calm -- 30.04 in1017.3 mb - 0.00 in0.0 mm 0.00 in0.0 mm
01:50 AM 58.2°F14.6°C 57.4°F14.1°C 97% Calm Calm -- 30.04 in1017.3 mb - 0.00 in0.0 mm 0.00 in0.0 mm
01:40 AM 58.4°F14.7°C 57.6°F14.2°C 97% Calm Calm -- 30.05 in1017.6 mb - 0.00 in0.0 mm 0.00 in0.0 mm
01:30 AM 58.6°F14.8°C 57.8°F14.3°C 97% Calm Calm -- 30.05 in1017.6 mb - 0.00 in0.0 mm 0.00 in0.0 mm
01:20 AM 58.8°F14.9°C 58.0°F14.4°C 97% Calm Calm -- 30.05 in1017.6 mb - 0.00 in0.0 mm 0.00 in0.0 mm
01:10 AM 59.0°F15.0°C 58.1°F14.5°C 97% Calm Calm -- 30.05 in1017.6 mb - 0.00 in0.0 mm 0.00 in0.0 mm
01:00 AM 59.1°F15.1°C 58.2°F14.6°C 97% Calm Calm -- 30.05 in1017.6 mb - 0.00 in0.0 mm 0.00 in0.0 mm
12:50 AM 59.2°F15.1°C 58.3°F14.6°C 97% Calm Calm -- 30.05 in1017.6 mb - 0.00 in0.0 mm 0.00 in0.0 mm
12:40 AM 59.2°F15.1°C 58.3°F14.6°C 97% Calm Calm -- 30.05 in1017.6 mb - 0.00 in0.0 mm 0.00 in0.0 mm
12:30 AM 59.2°F15.1°C 58.3°F14.6°C 97% Calm Calm -- 30.05 in1017.6 mb - 0.00 in0.0 mm 0.00 in0.0 mm
12:20 AM 59.2°F15.1°C 58.3°F14.6°C 97% Calm Calm -- 30.05 in1017.6 mb - 0.00 in0.0 mm 0.00 in0.0 mm
12:10 AM 59.1°F15.1°C 58.2°F14.6°C 97% Calm Calm -- 30.05 in1017.6 mb - 0.00 in0.0 mm 0.00 in0.0 mm
12:00 AM 59.1°F15.1°C 58.2°F14.6°C 97% Calm Calm -- 30.05 in1017.6 mb - 0.00 in0.0 mm 0.00 in0.0 mm